Time;durP1;ratioP1;P1;durP2;ratioP2;P2;SDS_P1;SDS_P2;PMS_P1;PMS_P2;Temp;Humidity;BMP_temperature;BMP_pressure;BME280_temperature;BME280_humidity;BME280_pressure;Samples;Min_cycle;Max_cycle;Signal;HPM_P1;HPM_P2
2022/03/04 00:00:44;;;;;;;56.50;23.17;;;2.70;77.60;;;2.41;56.28;94655.69;5063692;28;20455;-56
2022/03/04 00:03:11;;;;;;;51.53;22.73;;;2.70;77.50;;;2.41;55.21;94655.69;5058563;28;20543;-56
2022/03/04 00:05:39;;;;;;;41.40;22.53;;;2.70;77.60;;;2.37;55.42;94640.41;5063149;28;20489;-60
2022/03/04 00:08:06;;;;;;;52.53;23.07;;;2.70;77.90;;;2.41;56.03;94649.69;5060278;28;20455;-61
2022/03/04 00:10:34;;;;;;;39.90;22.23;;;2.70;78.00;;;2.40;54.96;94648.00;5058815;28;20440;-60
2022/03/04 00:13:01;;;;;;;41.47;21.13;;;2.70;78.40;;;2.40;56.29;94651.47;5060054;28;20512;-61
2022/03/04 00:15:30;;;;;;;46.50;24.10;;;2.70;78.50;;;2.38;55.14;94645.50;5062870;28;20520;-60
2022/03/04 00:17:57;;;;;;;39.00;21.93;;;2.70;78.80;;;2.36;55.64;94644.78;5059904;28;20458;-61
2022/03/04 00:20:24;;;;;;;45.07;22.97;;;2.70;78.50;;;2.34;56.38;94644.06;5058554;28;20546;-61
2022/03/04 00:22:52;;;;;;;37.80;21.83;;;2.60;78.90;;;2.32;55.83;94640.69;5057006;28;21062;-61
2022/03/04 00:25:19;;;;;;;49.83;23.10;;;2.60;78.80;;;2.32;55.84;94646.75;5057893;28;20537;-60
2022/03/04 00:27:47;;;;;;;52.53;24.67;;;2.60;78.80;;;2.29;56.64;94636.56;5059919;28;20459;-57
2022/03/04 00:30:14;;;;;;;45.63;22.67;;;2.60;79.10;;;2.27;55.78;94640.97;5058456;28;20471;-61
2022/03/04 00:32:42;;;;;;;50.10;24.37;;;2.60;79.50;;;2.26;56.85;94638.47;5057273;28;21010;-60
2022/03/04 00:35:10;;;;;;;51.60;22.03;;;2.60;79.70;;;2.25;56.09;94632.47;5057491;28;20479;-56
2022/03/04 00:37:37;;;;;;;43.93;22.53;;;2.50;79.40;;;2.24;56.64;94641.16;5055766;28;20868;-60
2022/03/04 00:40:06;;;;;;;47.93;21.80;;;2.50;79.50;;;2.22;56.36;94629.25;5060321;28;20478;-61
2022/03/04 00:42:34;;;;;;;51.60;23.20;;;2.50;79.50;;;2.20;55.80;94631.94;5058192;28;20467;-55
2022/03/04 00:45:01;;;;;;;55.67;25.03;;;2.50;79.90;;;2.20;56.70;94636.28;5060072;28;20501;-60
2022/03/04 00:47:28;;;;;;;46.33;23.30;;;2.50;80.40;;;2.10;55.71;94621.28;5059051;28;20448;-59
2022/03/04 00:49:58;;;;;;;45.17;22.97;;;2.50;80.00;;;2.14;56.13;94638.31;5057715;28;20478;-55
2022/03/04 00:52:25;;;;;;;46.83;22.03;;;2.40;79.90;;;2.14;56.78;94640.09;5059236;28;20456;-55
2022/03/04 00:54:52;;;;;;;42.67;24.30;;;2.40;80.30;;;2.12;56.43;94631.56;5065399;28;20470;-60
2022/03/04 00:57:20;;;;;;;48.83;23.13;;;2.40;80.20;;;2.12;56.60;94635.00;5066272;28;20463;-60
2022/03/04 00:59:47;;;;;;;46.17;24.17;;;2.40;80.10;;;2.12;55.97;94629.81;5058600;28;21009;-56
2022/03/04 01:02:14;;;;;;;51.73;24.57;;;2.40;80.40;;;2.13;56.92;94630.63;5057098;28;20463;-64
2022/03/04 01:04:41;;;;;;;59.47;25.20;;;2.40;80.50;;;2.13;57.06;94631.47;5052309;28;20492;-60
2022/03/04 01:07:10;;;;;;;44.90;25.40;;;2.40;80.60;;;2.13;56.87;94628.03;5051079;28;20459;-56
2022/03/04 01:09:37;;;;;;;56.70;28.00;;;2.40;80.50;;;2.11;58.19;94620.34;5049335;28;20529;-60
2022/03/04 01:12:06;;;;;;;54.10;27.90;;;2.40;81.70;;;2.07;56.39;94621.47;5055400;28;20454;-61
2022/03/04 01:14:33;;;;;;;63.87;28.80;;;2.40;80.80;;;2.05;56.73;94619.91;5058651;28;21061;-61
2022/03/04 01:17:01;;;;;;;55.80;25.53;;;2.30;80.40;;;2.05;57.17;94620.72;5061439;28;20447;-56
2022/03/04 01:19:28;;;;;;;49.43;25.40;;;2.30;80.80;;;2.05;56.66;94617.31;5059936;28;20514;-58
2022/03/04 01:21:55;;;;;;;46.70;25.77;;;2.30;81.00;;;2.01;57.26;94606.28;5060909;28;20508;-61
2022/03/04 01:24:24;;;;;;;52.57;26.27;;;2.30;80.80;;;1.98;57.54;94606.47;5063169;28;20494;-60
2022/03/04 01:26:51;;;;;;;45.77;26.20;;;2.30;81.10;;;1.95;56.87;94611.84;5065637;28;20487;-57
2022/03/04 01:29:18;;;;;;;57.53;26.53;;;2.20;80.70;;;1.90;56.30;94604.34;5063293;28;20482;-56
2022/03/04 01:31:46;;;;;;;46.40;25.20;;;2.20;81.10;;;1.85;56.88;94602.97;5063448;28;20851;-60
2022/03/04 01:34:13;;;;;;;49.67;28.70;;;2.20;81.50;;;1.78;57.05;94590.38;5061935;28;20963;-61
2022/03/04 01:36:40;;;;;;;51.57;25.77;;;2.10;81.40;;;1.76;57.76;94596.59;5060959;28;20450;-62
2022/03/04 01:39:08;;;;;;;58.97;26.70;;;2.10;81.60;;;1.74;57.28;94591.50;5065001;28;21061;-60
2022/03/04 01:41:36;;;;;;;48.77;25.30;;;2.00;81.90;;;1.73;57.45;94589.81;5064866;28;20455;-61
2022/03/04 01:44:04;;;;;;;53.53;25.27;;;2.00;81.80;;;1.74;57.97;94593.25;5062469;28;20496;-60
2022/03/04 01:46:32;;;;;;;49.43;26.03;;;2.00;81.80;;;1.74;57.63;94594.09;5063955;28;20498;-60
2022/03/04 01:48:59;;;;;;;51.13;26.67;;;2.00;82.70;;;1.76;58.32;94594.00;5062034;28;20475;-55
2022/03/04 01:51:26;;;;;;;60.00;31.50;;;2.00;82.50;;;1.75;57.76;94589.72;5061549;28;20455;-56
2022/03/04 01:53:53;;;;;;;55.53;28.37;;;2.00;83.00;;;1.71;58.06;94588.25;5059552;28;20471;-56
2022/03/04 01:56:21;;;;;;;51.60;26.73;;;2.00;83.00;;;1.70;58.03;94586.59;5060718;28;20987;-56
2022/03/04 01:58:50;;;;;;;63.83;29.07;;;2.00;83.00;;;1.73;58.76;94576.03;5058242;28;20517;-61
2022/03/04 02:01:17;;;;;;;56.23;27.43;;;2.00;83.20;;;1.74;57.61;94588.06;5057522;28;20963;-62
2022/03/04 02:03:44;;;;;;;59.77;29.70;;;2.00;83.30;;;1.73;58.40;94584.63;5058263;28;20471;-56
2022/03/04 02:06:12;;;;;;;59.23;28.57;;;2.00;83.10;;;1.75;58.21;94580.19;5056082;28;20510;-60
2022/03/04 02:08:39;;;;;;;56.00;28.73;;;2.00;83.50;;;1.77;57.95;94588.72;5058809;28;20940;-56
2022/03/04 02:11:06;;;;;;;60.33;29.70;;;2.10;83.40;;;1.80;58.43;94582.50;5057337;28;20459;-61
2022/03/04 02:13:34;;;;;;;57.00;29.10;;;2.10;83.60;;;1.81;58.52;94583.34;5058908;28;20471;-56
2022/03/04 02:16:03;;;;;;;64.60;29.37;;;2.10;83.40;;;1.84;58.42;94588.34;5058823;28;20569;-55
2022/03/04 02:18:30;;;;;;;53.83;26.83;;;2.10;83.60;;;1.85;57.44;94582.22;5057547;28;20649;-63
2022/03/04 02:20:58;;;;;;;51.43;30.27;;;2.10;83.40;;;1.85;57.19;94572.69;5055368;28;20827;-56
2022/03/04 02:23:26;;;;;;;71.20;33.90;;;2.10;83.30;;;1.83;58.44;94579.72;5060040;28;20847;-61
2022/03/04 02:25:53;;;;;;;59.60;32.60;;;2.10;83.10;;;1.81;57.36;94583.34;5053836;28;20844;-59
2022/03/04 02:28:22;;;;;;;74.50;34.40;;;2.10;83.00;;;1.77;58.34;94580.09;5057003;28;20464;-61
2022/03/04 02:30:49;;;;;;;77.90;34.93;;;2.10;83.00;;;1.74;58.12;94577.69;5056144;28;20460;-61
2022/03/04 02:33:16;;;;;;;73.73;36.20;;;2.00;83.00;;;1.68;57.70;94575.47;5057056;28;20470;-60
2022/03/04 02:35:44;;;;;;;87.90;37.33;;;2.00;83.00;;;1.66;58.69;94577.31;5055069;28;20482;-56
2022/03/04 02:38:11;;;;;;;83.67;38.33;;;2.00;83.50;;;1.66;58.80;94574.72;5062867;28;20467;-61
2022/03/04 02:40:40;;;;;;;96.10;42.20;;;2.00;84.20;;;1.65;58.15;94573.91;5058885;28;20459;-61
2022/03/04 02:43:07;;;;;;;97.90;43.10;;;1.90;83.80;;;1.66;57.89;94569.53;5058877;28;20549;-60
2022/03/04 02:45:34;;;;;;;105.23;45.60;;;2.00;84.00;;;1.67;58.50;94563.44;5057506;28;20523;-55
2022/03/04 02:48:02;;;;;;;95.63;41.40;;;2.00;83.80;;;1.63;58.14;94575.75;5062211;28;20451;-55
2022/03/04 02:50:29;;;;;;;84.77;38.80;;;2.00;83.60;;;1.58;58.28;94567.41;5064509;28;20791;-56
2022/03/04 02:52:57;;;;;;;87.43;40.00;;;1.90;83.60;;;1.52;57.80;94571.22;5061130;28;20797;-55
2022/03/04 02:55:24;;;;;;;81.67;37.87;;;1.90;83.20;;;1.45;58.90;94567.34;5060597;28;21022;-59
2022/03/04 02:57:53;;;;;;;82.83;39.00;;;1.80;83.00;;;1.41;58.90;94571.88;5061849;28;20458;-60
2022/03/04 03:00:20;;;;;;;80.30;38.70;;;1.80;83.80;;;1.38;58.20;94569.47;5062326;28;20447;-60
2022/03/04 03:02:48;;;;;;;78.50;39.27;;;1.70;83.70;;;1.36;58.00;94573.88;5061298;28;20458;-61
2022/03/04 03:05:15;;;;;;;74.67;37.97;;;1.70;83.80;;;1.37;58.94;94572.97;5062787;28;20956;-56
2022/03/04 03:07:42;;;;;;;52.63;28.17;;;1.70;84.30;;;1.36;57.59;94568.69;5063420;28;21147;-61
2022/03/04 03:10:10;;;;;;;53.67;28.57;;;1.70;83.40;;;1.33;58.01;94584.44;5063326;28;20559;-57
2022/03/04 03:12:38;;;;;;;57.47;27.97;;;1.70;83.30;;;1.28;57.79;94577.88;5058286;28;20456;-59
2022/03/04 03:15:08;;;;;;;65.57;32.27;;;1.60;83.40;;;1.24;58.89;94575.47;5058770;28;20487;-60
2022/03/04 03:17:36;;;;;;;74.27;30.00;;;1.60;83.90;;;1.24;58.19;94574.66;5059892;28;20458;-55
2022/03/04 03:20:03;;;;;;;60.90;32.47;;;1.60;83.40;;;1.21;59.08;94577.41;5059368;28;20478;-56
2022/03/04 03:22:30;;;;;;;60.13;30.10;;;1.50;83.70;;;1.19;57.92;94571.47;5056095;28;20455;-56
2022/03/04 03:24:58;;;;;;;63.37;30.67;;;1.50;83.80;;;1.20;59.10;94566.19;5057937;28;20478;-56
2022/03/04 03:27:25;;;;;;;63.53;30.90;;;1.50;83.90;;;1.20;58.64;94575.75;5057363;28;20939;-59
2022/03/04 03:29:52;;;;;;;45.53;26.63;;;1.50;84.10;;;1.22;58.46;94581.66;5056921;28;20477;-56
2022/03/04 03:32:21;;;;;;;56.07;28.50;;;1.50;83.80;;;1.20;58.19;94580.91;5053514;28;20518;-61
2022/03/04 03:34:48;;;;;;;54.23;28.33;;;1.50;83.40;;;1.18;58.12;94575.00;5056075;28;20482;-56
2022/03/04 03:37:16;;;;;;;51.60;28.80;;;1.50;83.50;;;1.19;58.45;94582.69;5064593;28;20451;-60
2022/03/04 03:39:43;;;;;;;57.93;28.20;;;1.50;83.80;;;1.20;58.50;94578.34;5055440;28;20482;-60
2022/03/04 03:42:10;;;;;;;57.50;29.20;;;1.50;83.80;;;1.21;58.89;94575.66;5053380;28;20964;-56
2022/03/04 03:44:37;;;;;;;65.73;28.00;;;1.50;83.90;;;1.22;57.76;94579.06;5054725;28;20479;-60
2022/03/04 03:47:05;;;;;;;60.53;29.27;;;1.50;83.80;;;1.20;57.94;94584.34;5055278;28;20483;-56
2022/03/04 03:49:34;;;;;;;53.27;28.50;;;1.50;83.90;;;1.21;58.72;94585.19;5055006;28;21057;-61
2022/03/04 03:52:01;;;;;;;52.13;26.93;;;1.50;83.80;;;1.19;57.79;94590.47;5054111;28;20456;-63
2022/03/04 03:54:28;;;;;;;56.77;25.90;;;1.60;83.90;;;1.20;58.63;94588.69;5054153;28;20468;-61
2022/03/04 03:56:56;;;;;;;45.37;25.47;;;1.50;84.00;;;1.19;58.30;94589.59;5056714;28;20516;-56
2022/03/04 03:59:23;;;;;;;48.00;26.83;;;1.50;84.30;;;1.19;59.36;94589.59;5065129;28;20490;-60
2022/03/04 04:01:50;;;;;;;60.60;25.80;;;1.50;84.20;;;1.19;57.99;94587.00;5061088;28;20456;-61
2022/03/04 04:04:18;;;;;;;53.47;25.87;;;1.50;83.80;;;1.19;58.28;94587.00;5064404;28;20747;-60
2022/03/04 04:06:46;;;;;;;60.53;29.30;;;1.50;83.80;;;1.17;58.48;94588.88;5061767;28;20586;-55
2022/03/04 04:09:14;;;;;;;53.40;29.00;;;1.50;83.80;;;1.17;58.61;94588.88;5061972;28;20475;-61
2022/03/04 04:11:41;;;;;;;54.30;25.93;;;1.50;83.80;;;1.15;58.54;94593.31;5062026;28;20462;-60
2022/03/04 04:14:09;;;;;;;44.77;25.77;;;1.50;83.90;;;1.13;57.81;94593.41;5060232;28;20575;-62
2022/03/04 04:16:36;;;;;;;46.80;26.87;;;1.50;83.80;;;1.13;57.98;94595.16;5057562;28;21009;-60
2022/03/04 04:19:04;;;;;;;48.80;27.80;;;1.50;83.80;;;1.12;58.92;94601.28;5059533;28;20468;-55
2022/03/04 04:21:31;;;;;;;52.10;29.57;;;1.50;83.80;;;1.11;58.25;94599.59;5060689;28;20812;-54
2022/03/04 04:24:00;;;;;;;52.57;25.27;;;1.40;83.60;;;1.12;58.30;94601.28;5059964;28;20514;-60
2022/03/04 04:26:27;;;;;;;54.60;28.67;;;1.50;83.80;;;1.11;58.69;94603.00;5060364;28;20484;-55
2022/03/04 04:28:54;;;;;;;51.67;28.37;;;1.50;83.90;;;1.10;59.17;94603.09;5059250;28;20467;-60
2022/03/04 04:31:22;;;;;;;58.47;29.03;;;1.50;84.00;;;1.09;58.69;94598.84;5056134;28;20858;-56
2022/03/04 04:33:49;;;;;;;60.10;30.47;;;1.40;83.70;;;1.06;58.52;94605.84;5060508;28;20473;-56
2022/03/04 04:36:16;;;;;;;60.03;31.10;;;1.40;83.70;;;1.04;57.75;94605.13;5060430;28;20452;-61
2022/03/04 04:38:43;;;;;;;61.17;34.10;;;1.40;83.80;;;1.00;58.81;94611.41;5059880;28;20551;-59
2022/03/04 04:41:12;;;;;;;63.57;33.40;;;1.40;83.70;;;0.98;59.03;94618.44;5058866;28;20459;-61
2022/03/04 04:43:39;;;;;;;59.37;32.40;;;1.30;83.70;;;0.96;58.33;94607.34;5054065;28;20470;-61
2022/03/04 04:46:07;;;;;;;65.30;33.10;;;1.30;84.00;;;0.98;58.05;94613.25;5054372;28;20494;-60
2022/03/04 04:48:34;;;;;;;59.40;31.97;;;1.30;84.00;;;0.98;59.11;94608.06;5055605;28;20486;-60
2022/03/04 04:51:01;;;;;;;63.93;32.23;;;1.30;84.20;;;0.99;58.04;94620.09;5054723;28;20876;-58
2022/03/04 04:53:29;;;;;;;68.23;33.57;;;1.30;84.40;;;1.00;59.13;94608.81;5060449;28;20481;-57
2022/03/04 04:55:56;;;;;;;60.87;31.20;;;1.30;84.20;;;1.01;58.96;94609.66;5056836;28;20456;-57
2022/03/04 04:58:25;;;;;;;64.53;33.50;;;1.40;85.20;;;1.01;58.97;94620.84;5058145;28;20818;-57
2022/03/04 05:00:54;;;;;;;63.73;31.47;;;1.30;84.50;;;1.00;58.99;94616.56;5057033;28;20455;-57
2022/03/04 05:03:21;;;;;;;66.50;32.80;;;1.40;84.60;;;0.99;58.53;94617.50;5050698;28;20561;-56
2022/03/04 05:05:49;;;;;;;61.10;31.87;;;1.30;84.20;;;1.00;58.53;94619.16;5054190;28;20968;-57
2022/03/04 05:08:16;;;;;;;56.50;31.67;;;1.40;84.60;;;1.01;58.88;94612.25;5054294;28;20476;-59
2022/03/04 05:10:44;;;;;;;63.00;33.43;;;1.30;84.60;;;0.99;59.39;94617.50;5053928;28;20497;-59
2022/03/04 05:13:12;;;;;;;57.93;31.00;;;1.30;85.00;;;0.96;59.32;94620.28;5054103;28;20455;-59
2022/03/04 05:15:41;;;;;;;70.40;30.20;;;1.30;84.90;;;0.95;59.15;94621.19;5056431;28;20520;-56
2022/03/04 05:18:08;;;;;;;59.23;30.10;;;1.30;85.40;;;0.92;59.12;94617.94;5056851;28;20488;-57
2022/03/04 05:20:36;;;;;;;53.47;29.80;;;1.20;85.10;;;0.88;58.83;94609.50;5063651;28;20535;-60
2022/03/04 05:23:03;;;;;;;46.23;25.67;;;1.20;85.00;;;0.85;59.36;94620.03;5057630;28;20447;-59
2022/03/04 05:25:31;;;;;;;44.40;25.10;;;1.20;84.90;;;0.81;58.91;94619.38;5057569;28;20515;-59
2022/03/04 05:27:58;;;;;;;46.03;22.83;;;1.20;84.70;;;0.80;59.00;94625.47;5058708;28;21018;-57
2022/03/04 05:30:26;;;;;;;41.47;23.70;;;1.10;84.50;;;0.79;59.18;94623.84;5059129;28;20837;-59
2022/03/04 05:32:55;;;;;;;41.00;23.13;;;1.10;84.20;;;0.80;58.69;94627.25;5056013;28;20971;-61
2022/03/04 05:35:22;;;;;;;42.30;21.63;;;1.10;84.10;;;0.82;58.28;94620.22;5058448;28;20529;-59
2022/03/04 05:37:49;;;;;;;56.23;22.43;;;1.10;84.00;;;0.84;59.01;94626.97;5059967;28;20464;-60
2022/03/04 05:40:17;;;;;;;41.53;19.97;;;1.20;83.90;;;0.85;58.80;94625.22;5054084;28;20836;-57
2022/03/04 05:42:44;;;;;;;40.37;21.57;;;1.20;83.60;;;0.85;58.43;94636.44;5057635;28;20509;-58
2022/03/04 05:45:12;;;;;;;37.20;21.43;;;1.20;83.50;;;0.86;58.84;94632.91;5061685;28;20466;-58
2022/03/04 05:47:39;;;;;;;39.90;21.27;;;1.20;83.80;;;0.88;57.49;94630.22;5057516;28;20501;-57
2022/03/04 05:50:09;;;;;;;37.20;20.00;;;1.20;83.50;;;0.91;58.19;94635.22;5063004;28;20479;-61
2022/03/04 05:52:37;;;;;;;43.10;21.73;;;1.30;83.50;;;0.95;57.83;94628.97;5056525;28;20444;-61
2022/03/04 05:55:05;;;;;;;37.70;20.50;;;1.30;83.10;;;0.99;57.67;94638.22;5058094;28;20474;-63
2022/03/04 05:57:32;;;;;;;39.90;21.70;;;1.30;82.90;;;1.01;57.80;94636.38;5061017;28;20453;-61
2022/03/04 05:59:59;;;;;;;43.00;22.60;;;1.30;82.90;;;1.03;57.14;94634.53;5056405;28;20523;-60
2022/03/04 06:02:28;;;;;;;36.87;22.97;;;1.40;82.90;;;1.07;58.52;94635.19;5055028;28;20448;-61
2022/03/04 06:04:56;;;;;;;40.67;21.20;;;1.40;83.10;;;1.14;57.88;94636.50;5050552;28;21120;-62
2022/03/04 06:07:24;;;;;;;44.03;22.23;;;1.50;83.10;;;1.19;57.28;94633.63;5049663;28;20495;-57
2022/03/04 06:09:51;;;;;;;50.30;22.30;;;1.50;82.50;;;1.24;58.09;94635.06;5053202;28;20479;-61
2022/03/04 06:12:19;;;;;;;41.70;20.20;;;1.50;82.40;;;1.33;57.86;94633.66;5053436;28;20461;-62
2022/03/04 06:14:46;;;;;;;50.20;24.57;;;1.60;82.60;;;1.47;56.86;94632.03;5052417;28;20472;-56
2022/03/04 06:17:14;;;;;;;42.77;22.93;;;1.70;82.50;;;1.59;57.09;94633.88;5053328;28;20467;-55
2022/03/04 06:19:41;;;;;;;45.67;23.30;;;1.90;82.00;;;1.72;56.19;94637.44;5059675;28;20475;-61
2022/03/04 06:22:09;;;;;;;42.27;22.70;;;2.00;81.90;;;1.86;56.88;94634.00;5067661;28;20562;-62
2022/03/04 06:24:37;;;;;;;43.43;22.27;;;2.10;81.40;;;2.03;56.80;94635.56;5054157;28;20498;-56
2022/03/04 06:27:05;;;;;;;43.17;24.10;;;2.20;81.50;;;2.22;55.64;94634.44;5064115;28;20893;-61
2022/03/04 06:29:33;;;;;;;50.93;26.30;;;2.40;81.60;;;2.40;55.66;94640.22;5059833;28;20551;-61
2022/03/04 06:32:00;;;;;;;45.77;23.33;;;2.60;80.60;;;2.50;55.79;94639.53;5058782;28;20451;-61
2022/03/04 06:34:27;;;;;;;47.33;24.83;;;2.70;79.70;;;2.56;55.85;94632.31;5060784;28;20487;-55
2022/03/04 06:36:54;;;;;;;48.93;26.40;;;2.80;79.10;;;2.57;54.51;94642.59;5060048;28;20521;-61
2022/03/04 06:39:22;;;;;;;44.27;25.30;;;2.90;78.50;;;2.58;54.64;94640.84;5066098;28;20478;-55
2022/03/04 06:41:50;;;;;;;58.90;30.07;;;2.90;78.60;;;2.59;54.93;94652.91;5062119;28;20447;-60
2022/03/04 06:44:18;;;;;;;47.73;26.67;;;2.80;78.20;;;2.60;55.39;94649.34;5062049;28;20467;-61
2022/03/04 06:46:45;;;;;;;64.20;30.20;;;2.90;78.30;;;2.60;55.39;94645.00;5063720;28;20912;-61
2022/03/04 06:49:13;;;;;;;65.13;31.60;;;2.90;78.40;;;2.64;55.54;94653.44;5061764;28;20483;-56
2022/03/04 06:51:40;;;;;;;65.50;33.80;;;2.90;78.70;;;2.67;55.36;94653.25;5061235;28;20451;-56
2022/03/04 06:54:07;;;;;;;74.53;35.53;;;2.90;78.40;;;2.69;55.84;94651.38;5061935;28;20897;-61
2022/03/04 06:56:35;;;;;;;62.50;30.53;;;3.00;78.50;;;2.75;55.14;94658.75;5062893;28;20456;-60
2022/03/04 06:59:03;;;;;;;53.50;29.23;;;3.00;78.20;;;2.79;54.27;94659.41;5062278;28;20479;-62
2022/03/04 07:01:31;;;;;;;52.90;29.17;;;3.00;77.80;;;2.81;55.36;94652.34;5061281;28;20455;-57
2022/03/04 07:03:58;;;;;;;58.77;28.90;;;3.00;78.20;;;2.89;55.33;94655.28;5062553;28;20475;-57
2022/03/04 07:06:25;;;;;;;58.90;31.23;;;3.10;78.30;;;2.99;55.36;94663.31;5062430;28;20451;-61
2022/03/04 07:08:52;;;;;;;59.77;27.77;;;3.20;78.40;;;3.09;54.51;94661.78;5061069;28;20470;-61
2022/03/04 07:11:20;;;;;;;55.60;29.27;;;3.30;78.20;;;3.20;54.21;94663.69;5061425;28;20451;-60
2022/03/04 07:13:47;;;;;;;55.50;28.20;;;3.40;77.70;;;3.32;54.16;94662.06;5059436;28;20475;-61
2022/03/04 07:16:16;;;;;;;47.50;27.80;;;3.50;77.70;;;3.52;54.50;94651.16;5065776;28;20447;-56
2022/03/04 07:18:43;;;;;;;55.53;26.97;;;3.70;77.90;;;3.89;54.20;94655.66;5057365;28;20477;-61
2022/03/04 07:21:11;;;;;;;43.37;25.37;;;4.00;78.10;;;4.38;53.84;94661.84;5055288;28;20461;-60
2022/03/04 07:23:38;;;;;;;44.10;26.23;;;4.40;77.50;;;4.85;53.26;94655.88;5058245;28;20530;-62
2022/03/04 07:26:08;;;;;;;46.47;27.10;;;4.80;76.50;;;5.26;52.55;94658.19;5056618;28;20452;-60
2022/03/04 07:28:35;;;;;;;45.73;26.57;;;5.30;75.40;;;5.55;50.91;94658.63;5056148;28;20500;-57
2022/03/04 07:31:03;;;;;;;53.50;26.43;;;5.60;72.50;;;5.73;50.71;94652.03;5052830;28;20570;-60
2022/03/04 07:33:33;;;;;;;48.30;26.20;;;5.80;70.90;;;5.87;50.57;94658.81;5053922;28;20475;-62
2022/03/04 07:36:01;;;;;;;34.27;23.63;;;6.00;70.40;;;6.00;50.63;94660.53;5053665;28;20451;-60
2022/03/04 07:38:28;;;;;;;44.30;24.73;;;6.10;70.30;;;6.09;49.91;94663.25;5061282;28;20485;-60
2022/03/04 07:40:58;;;;;;;49.70;26.77;;;6.20;68.30;;;6.13;49.14;94657.81;5060755;28;20447;-60
2022/03/04 07:43:25;;;;;;;42.77;26.10;;;6.30;67.70;;;6.15;49.35;94666.34;5053770;28;20479;-61
2022/03/04 07:45:52;;;;;;;51.30;26.20;;;6.30;67.40;;;6.15;48.86;94661.97;5065027;28;20447;-54
2022/03/04 07:48:20;;;;;;;41.07;25.60;;;6.30;66.10;;;6.12;48.80;94656.13;5056015;28;20495;-62
2022/03/04 07:50:48;;;;;;;46.20;26.50;;;6.30;66.20;;;6.10;49.41;94661.47;5056801;28;20460;-60
2022/03/04 07:53:16;;;;;;;47.17;24.43;;;6.30;66.70;;;6.13;49.03;94657.81;5061701;28;20476;-55
2022/03/04 07:55:44;;;;;;;43.03;25.87;;;6.30;66.80;;;6.15;48.68;94650.66;5065973;28;20526;-61
2022/03/04 07:58:11;;;;;;;55.73;26.47;;;6.30;66.70;;;6.16;49.09;94661.00;5059794;28;20463;-55
2022/03/04 08:00:38;;;;;;;57.37;26.17;;;6.30;66.40;;;6.14;48.90;94656.88;5060010;28;20458;-56
2022/03/04 08:03:06;;;;;;;49.53;26.33;;;6.30;66.20;;;6.13;47.00;94647.34;5060121;28;20879;-62
2022/03/04 08:05:33;;;;;;;42.17;23.77;;;6.30;63.50;;;6.13;48.87;94663.03;5060570;28;20948;-61
2022/03/04 08:08:02;;;;;;;46.10;23.60;;;6.30;65.90;;;6.15;48.21;94661.13;5057941;28;20596;-57
2022/03/04 08:10:30;;;;;;;55.23;26.13;;;6.30;65.10;;;6.18;47.96;94658.28;5056559;28;20972;-56
2022/03/04 08:12:57;;;;;;;50.77;23.43;;;6.30;65.00;;;6.23;48.36;94670.03;5057016;28;20557;-55
2022/03/04 08:15:25;;;;;;;46.70;25.03;;;6.40;64.90;;;6.27;48.66;94660.16;5056864;28;20873;-57
2022/03/04 08:17:53;;;;;;;46.30;25.40;;;6.40;64.80;;;6.33;48.29;94662.31;5059696;28;20875;-55
2022/03/04 08:20:21;;;;;;;44.97;25.60;;;6.50;64.70;;;6.39;48.31;94667.06;5057550;28;20455;-57
2022/03/04 08:22:48;;;;;;;54.37;28.20;;;6.50;64.70;;;6.42;46.94;94666.00;5060172;28;20459;-57
2022/03/04 08:25:17;;;;;;;54.17;26.37;;;6.60;62.40;;;6.50;48.38;94670.63;5058713;28;20970;-56
2022/03/04 08:27:44;;;;;;;49.43;26.17;;;6.60;64.70;;;6.74;48.31;94676.53;5056342;28;20491;-61
2022/03/04 08:30:13;;;;;;;50.53;25.90;;;6.80;65.10;;;7.10;48.14;94668.50;5056874;28;20518;-61
2022/03/04 08:32:41;;;;;;;48.03;25.70;;;7.10;64.30;;;7.51;47.07;94661.66;5054840;28;20459;-61
2022/03/04 08:35:09;;;;;;;50.77;25.00;;;7.50;64.00;;;7.95;46.26;94666.75;5055040;28;20480;-56
2022/03/04 08:37:36;;;;;;;52.20;25.10;;;7.90;61.80;;;8.28;43.99;94664.91;5061968;28;20443;-60
2022/03/04 08:40:04;;;;;;;42.70;24.50;;;8.20;57.80;;;8.55;44.62;94657.31;5054867;28;20494;-55
2022/03/04 08:42:33;;;;;;;47.37;22.50;;;8.50;58.90;;;8.89;44.07;94659.63;5065882;28;20448;-61
2022/03/04 08:45:00;;;;;;;54.83;22.90;;;8.80;58.70;;;9.22;43.15;94662.84;5060598;28;21060;-60
2022/03/04 08:47:28;;;;;;;50.17;26.70;;;9.10;56.70;;;9.60;42.36;94655.94;5055085;28;20602;-61
2022/03/04 08:49:55;;;;;;;59.63;22.30;;;9.40;55.20;;;10.02;42.32;94665.28;5053734;28;20486;-56
2022/03/04 08:52:22;;;;;;;48.70;23.20;;;9.80;55.40;;;10.49;40.99;94669.75;5052034;28;20460;-61
2022/03/04 08:54:50;;;;;;;32.70;18.83;;;10.20;52.90;;;10.98;41.24;94672.97;5049318;28;20510;-55
2022/03/04 08:57:17;;;;;;;38.13;20.30;;;10.70;53.50;;;11.48;39.67;94664.63;5053166;28;20456;-60
2022/03/04 08:59:46;;;;;;;35.87;17.50;;;11.20;50.70;;;11.98;39.15;94662.44;5051559;28;20472;-56
2022/03/04 09:02:13;;;;;;;34.87;20.43;;;11.70;50.30;;;12.47;38.10;94665.38;5051366;28;20705;-57
2022/03/04 09:04:40;;;;;;;45.07;23.57;;;12.20;48.90;;;12.97;38.00;94660.34;5051937;28;20921;-56
2022/03/04 09:07:08;;;;;;;38.03;22.20;;;12.70;48.60;;;13.45;37.09;94656.19;5056634;28;20528;-60
2022/03/04 09:09:35;;;;;;;38.87;21.10;;;13.10;47.10;;;13.85;35.29;94657.22;5060112;28;20467;-61
2022/03/04 09:12:03;;;;;;;38.37;22.50;;;13.60;44.10;;;14.14;35.31;94646.13;5062365;28;20484;-64
2022/03/04 09:14:30;;;;;;;44.80;22.43;;;13.90;44.90;;;14.44;34.96;94646.41;5059391;28;20471;-60
2022/03/04 09:16:59;;;;;;;35.93;21.70;;;14.20;45.10;;;14.73;33.71;94652.13;5060872;28;20455;-57
2022/03/04 09:19:27;;;;;;;38.43;22.17;;;14.50;43.20;;;15.00;34.47;94651.69;5055825;28;20754;-56
2022/03/04 09:21:54;;;;;;;38.43;21.30;;;14.80;43.60;;;15.23;33.56;94650.94;5061140;28;21050;-60
2022/03/04 09:24:21;;;;;;;33.90;22.53;;;15.00;41.90;;;15.38;33.91;94657.16;5059395;28;20478;-55
2022/03/04 09:26:49;;;;;;;38.90;23.10;;;15.20;42.40;;;15.45;32.50;94654.59;5059593;28;20857;-61
2022/03/04 09:29:16;;;;;;;42.77;25.30;;;15.30;40.70;;;15.30;31.33;94649.22;5059342;28;20490;-61
2022/03/04 09:31:43;;;;;;;37.70;22.77;;;15.20;39.40;;;15.17;32.94;94652.44;5061130;28;20447;-56
2022/03/04 09:34:12;;;;;;;42.33;23.00;;;15.10;40.60;;;15.21;33.89;94655.56;5059090;28;20471;-56
2022/03/04 09:36:39;;;;;;;35.53;23.80;;;15.10;42.10;;;15.45;33.51;94661.75;5057229;28;20483;-61
2022/03/04 09:39:07;;;;;;;59.17;23.37;;;15.20;41.70;;;15.70;33.11;94655.25;5060633;28;20466;-55
2022/03/04 09:41:34;;;;;;;45.03;21.47;;;15.40;40.90;;;15.92;32.70;94652.81;5060876;28;20452;-54
2022/03/04 09:44:02;;;;;;;34.10;20.73;;;15.70;40.80;;;16.12;32.23;94645.19;5061750;28;20482;-56
2022/03/04 09:46:29;;;;;;;32.63;20.30;;;15.90;39.80;;;16.30;31.38;94647.53;5065899;28;20463;-61
2022/03/04 09:48:56;;;;;;;30.43;19.37;;;16.10;39.00;;;16.42;31.59;94647.88;5061712;28;20888;-61
2022/03/04 09:51:25;;;;;;;29.43;19.27;;;16.20;39.40;;;16.57;30.70;94647.91;5063116;28;20459;-56
2022/03/04 09:53:52;;;;;;;49.40;20.53;;;16.40;38.10;;;16.72;30.95;94648.75;5061934;28;20472;-61
2022/03/04 09:56:20;;;;;;;34.40;19.60;;;16.50;38.30;;;16.79;30.36;94652.31;5065023;28;20487;-56
2022/03/04 09:58:47;;;;;;;39.20;17.87;;;16.60;36.90;;;16.78;31.18;94642.69;5065633;28;20897;-61
2022/03/04 10:01:16;;;;;;;32.03;18.13;;;16.60;38.50;;;16.85;30.89;94638.31;5060529;28;20439;-57
2022/03/04 10:03:45;;;;;;;30.70;18.30;;;16.70;38.10;;;16.91;29.29;94636.75;5059243;28;20475;-56
2022/03/04 10:06:13;;;;;;;30.17;18.67;;;16.70;37.40;;;16.95;31.01;94637.22;5059624;28;20558;-63
2022/03/04 10:08:44;;;;;;;29.10;16.63;;;16.80;38.90;;;16.92;30.77;94629.63;5056225;28;20882;-57
2022/03/04 10:11:12;;;;;;;33.47;18.80;;;16.80;38.50;;;16.94;29.07;94627.59;5053601;28;20450;-64
2022/03/04 10:13:50;;;;;;;31.63;18.17;;;16.80;36.70;;;16.86;31.01;94620.56;5056140;28;20546;-57
2022/03/04 10:16:24;;;;;;;36.03;16.20;;;16.70;38.50;;;16.75;30.43;94613.84;5065388;28;20971;-64
2022/03/04 10:19:07;;;;;;;21.40;13.03;;;16.60;37.40;;;16.63;28.90;94604.69;5059260;28;20478;-60